avvertimento per Temporali more information blitzortung!


Rain radar more information rain snow radar


altri nostri siti meteo:

PomeziameteoStazione ufficiale di Pomezia

MeteopomeziaSito sulle condizioni meteo



Temporali Inizio validita dal: 02-07-2020 17:00 Fino: 22:59 Allerta per: Temporali Livello: Giallo info button
Vento Inizio validita dal: 02-07-2020 11:00 Fino: 22:59 Allerta per: Vento Livello: Giallo info button

Report METAR

   
LIMP - Parma
Dati ricevuti: 02-07-2020 06:50
Parzialmente nuvoloso  
Parzialmente nuvoloso  
   Vento: W 3.7 km/h
Vento: W 3.7 km/h
Temperatura: 21°C
P.to Rugiada: 21°C
Umidita: 100%
Barometro: 1011 hPa
Nuvole: Parzialmente nuvoloso
Visibilita: 8 km
dettagli cloud: Parzialmente nuvoloso
LIMP 020450Z 25002KT 8000 NSC 21/21 Q1011
LIPE - Bologna
Dati ricevuti: 02-07-2020 06:50
Sereno  
Sereno  
   Vento: W 13 km/h
Vento: W 13 km/h
Temperatura: 22°C
P.to Rugiada: 18°C
Umidita: 78%
Barometro: 1011 hPa
Visibilita: oltre 10 km
dettagli cloud: Sereno
LIPE 020450Z 29007KT CAVOK 22/18 Q1011
LIPO - Brescia/Montichi
Dati ricevuti: 02-07-2020 06:50
Sereno  
Sereno  
   Vento: NO 14.8 km/h
Vento: NO 14.8 km/h
Temperatura: 20°C
P.to Rugiada: 18°C
Umidita: 88%
Barometro: 1011 hPa
Visibilita: oltre 10 km
dettagli cloud: Sereno
LIPO 020450Z 32008KT CAVOK 20/18 Q1011
LIPF - Ferrara
Dati ricevuti: 01-07-2020 19:55
DATI Obsoleti
Parzialmente nuvoloso  
Parzialmente nuvoloso  
   Vento: Variabile calma
Vento: Variabile calma
Temperatura: 30°C
Indice di Calore: 32°C
P.to Rugiada: 20°C
Umidita: 55%
Barometro: 1009 hPa
Nuvole: Parzialmente nuvoloso
Visibilita: oltre 10 km
dettagli cloud: Poche nuvole 3000 ft,
Parzialmente nuvoloso 8000 ft
LIPF 011755Z /////KT 9999 FEW030 SCT080 30/20 Q1009
LIPL - Ghedi
Dati ricevuti: 02-07-2020 06:55
Parzialmente nuvoloso  
Parzialmente nuvoloso  
   Vento: NO 9.3 km/h
Vento: NO 9.3 km/h
Temperatura: 21°C
P.to Rugiada: 18°C
Umidita: 83%
Barometro: 1011 hPa
Nuvole: Parzialmente nuvoloso
Visibilita: oltre 10 km
dettagli cloud: Poche nuvole 4000 ft,
Parzialmente nuvoloso 6000 ft
LIPL 020455Z 31005KT 9999 FEW040 SCT060 21/18 Q1011 RETS RMK BKN VIS MIN 9999 WIND THR31 30005KT WIND THR13 30005KT BLU
LIVC - Monte Cimone
Dati ricevuti: 02-07-2020 06:55
  
  
   Vento: Variabile 20.4 km/h<br />Gust to 20.4 km/h
Vento: Variabile 20.4 km/h
Gust to 20.4 km/h
Temperatura: 13°C
P.to Rugiada: 8°C
Umidita: 72%
Barometro: 1022 hPa
LIVC 020455Z AUTO VRB11G21KT //// 13/08 Q1022
LIMS - Piacenza
Dati ricevuti: 01-07-2020 19:55
DATI Obsoleti
Poche nuvole  
Poche nuvole  
   Vento: NNW 9.3 km/h
Vento: NNW 9.3 km/h
Temperatura: 29°C
Indice di Calore: 32°C
P.to Rugiada: 22°C
Umidita: 66%
Barometro: 1009 hPa
Nuvole: Poche nuvole
Visibilita: oltre 10 km
dettagli cloud: Poche nuvole 4000 ft
LIMS 011755Z 33005KT 9999 FEW040 29/22 Q1009
LIMT - Passo della Cisa
Dati ricevuti: 23-09-2019 13:55
DATI Obsoleti
Nebbia  
Nebbia  
   Vento: calma
Vento: calma
Temperatura: 10°C
P.to Rugiada: 10°C
Umidita: 100%
Barometro: 1014 hPa
Visibilita: 0 km
dettagli cloud: Coperto
LIMT 231155Z 00000KT 0000 FG VV/// 10/10 Q1014 RMK MON INVIS VAL INVIS VIS MIN 0000
LIPU - Padova
Dati ricevuti: 01-07-2020 15:55
DATI Obsoleti
Temporale, Pioggia, Molto nuvoloso  
Temporale, Pioggia, Molto nuvoloso  
   Vento: SW 18.5 km/h
Vento: SW 18.5 km/h
Temperatura: 27°C
Indice di Calore: 29°C
P.to Rugiada: 21°C
Umidita: 70%
Barometro: 1010 hPa
Nuvole: Molto nuvoloso
Visibilita: 7 km
dettagli cloud: Parzialmente nuvoloso 1500 ft,
Molto nuvoloso 3000 ft
LIPU 011355Z 22010KT 180V260 7000 TSRA SCT015CB BKN030 27/21 Q1010

Script sviluppato da  Saratoga-weather.org Adattato per il modello da  Weerstation Leuven

Strumentazione usata:

Stazione meteo
Davis VP2

Programma gestore dati meteo
WVIEW

Server per i dati meteo
Pc-WDS5

Davis VP2

WVIEW

Pc-WDS5